CYYC

Calgary International Airport

Calgary, Alberta, Canada
TAF CYYC 170238Z 1703/1724 01008KT 3/4SM -SG BR OVC003 TEMPO 1703/1706 3SM -SN OVC008 FM170600 02009KT 21/2SM -SN OVC008 TEMPO 1706/1715 1SM -SN BR OVC004 PROB40 1706/1715 1/2SM -SN FZFG VV002 FM171500 08008KT 4SM -SN BR SCT005 OVC010 TEMPO 1715/1718 1SM -SN BR OVC006 FM171800 10010KT 6SM -SN BR OVC012 RMK NXT FCST BY 170600Z
Issued Valid From Valid To
Jan-17 @ 02:38 UTC
(2 hours ago)
Jan-17 @ 03:00 UTC
(2 hours ago)
Jan-18 @ 00:00 UTC
(in 19 hours)
Jan-17 @ 03:00 to Jan-17 @ 06:00
TAF CYYC 170238Z 1703/1724 01008KT 3/4SM -SG BR OVC003
Wind Visibility Clouds Conditions
10° at 8 knots 3/4 miles
  • Overcast at 300' AGL
  • Light Snow grains
  • Mist
Temporary Jan-17 @ 03:00 to Jan-17 @ 06:00
TEMPO 1703/1706 3SM -SN OVC008
Visibility Clouds Conditions
3 miles
  • Overcast at 800' AGL
  • Light Snow
Probable  (Probability 40%) Jan-17 @ 06:00 to Jan-17 @ 15:00
PROB40 1706/1715 1/2SM -SN FZFG VV002
Visibility Clouds Conditions
1/2 miles
  • Vertical visibility at 200' AGL
  • Light Snow
  • Freezing
  • Fog
From Jan-17 @ 06:00 to Jan-17 @ 15:00
FM170600 02009KT 21/2SM -SN OVC008
Wind Visibility Clouds Conditions
20° at 9 knots 2 1/2 miles
  • Overcast at 800' AGL
  • Light Snow
Temporary Jan-17 @ 06:00 to Jan-17 @ 15:00
TEMPO 1706/1715 1SM -SN BR OVC004
Visibility Clouds Conditions
1 miles
  • Overcast at 400' AGL
  • Light Snow
  • Mist
Temporary Jan-17 @ 15:00 to Jan-17 @ 18:00
TEMPO 1715/1718 1SM -SN BR OVC006
Visibility Clouds Conditions
1 miles
  • Overcast at 600' AGL
  • Light Snow
  • Mist
From Jan-17 @ 15:00 to Jan-17 @ 18:00
FM171500 08008KT 4SM -SN BR SCT005 OVC010
Wind Visibility Clouds Conditions
80° at 8 knots 4 miles
  • Scattered at 500' AGL
  • Overcast at 1,000' AGL
  • Light Snow
  • Mist
From Jan-17 @ 18:00 to Jan-18 @ 00:00
FM171800 10010KT 6SM -SN BR OVC012 RMK NXT FCST BY 170600Z
Wind Visibility Clouds Conditions
100° at 10 knots 6 miles
  • Overcast at 1,200' AGL
  • Light Snow
  • Mist
TAF CYYC 170238Z 1703/1724 01008KT 3/4SM -SG BR OVC003 TEMPO 1703/1706 3SM -SN OVC008 FM170600 02009KT 21/2SM -SN OVC008 TEMPO 1706/1715 1SM -SN BR OVC004 PROB40 1706/1715 1/2SM -SN FZFG VV002 FM171500 08008KT 4SM -SN BR SCT005 OVC010 TEMPO 1715/1718 1SM -SN BR OVC006 FM171800 10010KT 6SM -SN BR OVC012 RMK NXT FCST BY 170600Z
Issued Jan-17 @ 02:38 UTC
(2 hours ago)
Valid From Jan-17 @ 03:00 UTC
(2 hours ago)
Valid To Jan-18 @ 00:00 UTC
(in 19 hours)
Jan-17 @ 03:00 - Jan-17 @ 06:00
Wind Visibility
10° at 8 knots 3/4 miles
Clouds
  • Overcast at 300' AGL
Conditions
  • Light Snow grains
  • Mist
Temporary Jan-17 @ 03:00 - Jan-17 @ 06:00
Clouds
  • Overcast at 800' AGL
Conditions
  • Light Snow
Probability 40% Probable Jan-17 @ 06:00 - Jan-17 @ 15:00
Clouds
  • Vertical visibility at 200' AGL
Conditions
  • Light Snow
  • Freezing
  • Fog
From Jan-17 @ 06:00 - Jan-17 @ 15:00
Wind Visibility
20° at 9 knots 2 1/2 miles
Clouds
  • Overcast at 800' AGL
Conditions
  • Light Snow
Temporary Jan-17 @ 06:00 - Jan-17 @ 15:00
Clouds
  • Overcast at 400' AGL
Conditions
  • Light Snow
  • Mist
Temporary Jan-17 @ 15:00 - Jan-17 @ 18:00
Clouds
  • Overcast at 600' AGL
Conditions
  • Light Snow
  • Mist
From Jan-17 @ 15:00 - Jan-17 @ 18:00
Wind Visibility
80° at 8 knots 4 miles
Clouds
  • Scattered at 500' AGL
  • Overcast at 1,000' AGL
Conditions
  • Light Snow
  • Mist
From Jan-17 @ 18:00 - Jan-18 @ 00:00
Wind Visibility
100° at 10 knots 6 miles
Clouds
  • Overcast at 1,200' AGL
Conditions
  • Light Snow
  • Mist